Terminal Aerodrome Forecast
Issued by NWS

Home | Current Version | Previous Version | Text Only | Print | Product List | Glossary On
Versions: 1 2 3 4 5 6 7 8 9 10 11 12 13 14 15
000
FTUS43 KOAX 261720
TAFBFF
TAF
KBFF 261720Z 2618/2718 30022G34KT P6SM BKN080
     FM270100 34013KT P6SM SCT050 BKN100
     FM271500 31015G25KT P6SM BKN200=

USA.gov is the U.S. government's official web portal to all federal, state and local government web resources and services.